sensor_id;sensor_type;location;lat;lon;timestamp;temperature;humidity
49777;DHT22;35673;51.482;7.436;2023-05-19T00:00:03;12.60;64.60
49777;DHT22;35673;51.482;7.436;2023-05-19T00:02:29;12.50;64.60
49777;DHT22;35673;51.482;7.436;2023-05-19T00:05:00;12.50;64.70
49777;DHT22;35673;51.482;7.436;2023-05-19T00:07:27;12.50;64.90
49777;DHT22;35673;51.482;7.436;2023-05-19T00:09:54;12.50;64.90
49777;DHT22;35673;51.482;7.436;2023-05-19T00:12:20;12.40;65.00
49777;DHT22;35673;51.482;7.436;2023-05-19T00:14:45;12.40;65.20
49777;DHT22;35673;51.482;7.436;2023-05-19T00:17:11;12.40;65.40
49777;DHT22;35673;51.482;7.436;2023-05-19T00:19:36;12.40;65.60
49777;DHT22;35673;51.482;7.436;2023-05-19T00:22:02;12.30;65.70
49777;DHT22;35673;51.482;7.436;2023-05-19T00:24:28;12.30;65.70
49777;DHT22;35673;51.482;7.436;2023-05-19T00:26:53;12.30;65.80
49777;DHT22;35673;51.482;7.436;2023-05-19T00:29:19;12.20;65.90
49777;DHT22;35673;51.482;7.436;2023-05-19T00:31:44;12.20;66.30
49777;DHT22;35673;51.482;7.436;2023-05-19T00:34:10;12.10;66.20
49777;DHT22;35673;51.482;7.436;2023-05-19T00:36:35;12.10;66.40
49777;DHT22;35673;51.482;7.436;2023-05-19T00:39:02;12.10;66.60
49777;DHT22;35673;51.482;7.436;2023-05-19T00:41:27;12.10;67.10
49777;DHT22;35673;51.482;7.436;2023-05-19T00:43:53;12.00;67.30
49777;DHT22;35673;51.482;7.436;2023-05-19T00:46:19;11.60;68.00
49777;DHT22;35673;51.482;7.436;2023-05-19T00:48:44;11.50;68.10
49777;DHT22;35673;51.482;7.436;2023-05-19T00:51:10;11.40;68.10
49777;DHT22;35673;51.482;7.436;2023-05-19T00:53:38;11.20;68.90
49777;DHT22;35673;51.482;7.436;2023-05-19T00:56:04;11.20;69.40
49777;DHT22;35673;51.482;7.436;2023-05-19T00:58:30;11.30;69.40
49777;DHT22;35673;51.482;7.436;2023-05-19T01:00:57;11.30;69.40
49777;DHT22;35673;51.482;7.436;2023-05-19T01:03:28;11.30;69.30
49777;DHT22;35673;51.482;7.436;2023-05-19T01:05:55;11.30;69.00
49777;DHT22;35673;51.482;7.436;2023-05-19T01:08:20;11.20;69.30
49777;DHT22;35673;51.482;7.436;2023-05-19T01:10:46;11.20;69.60
49777;DHT22;35673;51.482;7.436;2023-05-19T01:13:11;11.10;69.70
49777;DHT22;35673;51.482;7.436;2023-05-19T01:15:47;11.20;70.00
49777;DHT22;35673;51.482;7.436;2023-05-19T01:18:17;11.20;70.10
49777;DHT22;35673;51.482;7.436;2023-05-19T01:20:50;11.10;69.90
49777;DHT22;35673;51.482;7.436;2023-05-19T01:26:08;11.10;70.40
49777;DHT22;35673;51.482;7.436;2023-05-19T01:31:01;10.90;70.60
49777;DHT22;35673;51.482;7.436;2023-05-19T01:33:28;10.80;70.40
49777;DHT22;35673;51.482;7.436;2023-05-19T01:35:55;10.80;70.90
49777;DHT22;35673;51.482;7.436;2023-05-19T01:38:20;10.70;70.80
49777;DHT22;35673;51.482;7.436;2023-05-19T01:40:47;10.80;71.00
49777;DHT22;35673;51.482;7.436;2023-05-19T01:43:18;10.70;71.10
49777;DHT22;35673;51.482;7.436;2023-05-19T01:45:44;10.70;70.90
49777;DHT22;35673;51.482;7.436;2023-05-19T01:48:09;10.70;71.60
49777;DHT22;35673;51.482;7.436;2023-05-19T01:50:36;10.70;71.50
49777;DHT22;35673;51.482;7.436;2023-05-19T01:53:02;10.60;71.40
49777;DHT22;35673;51.482;7.436;2023-05-19T01:55:28;10.60;71.80
49777;DHT22;35673;51.482;7.436;2023-05-19T01:58:08;10.50;72.20
49777;DHT22;35673;51.482;7.436;2023-05-19T02:00:41;10.30;71.90
49777;DHT22;35673;51.482;7.436;2023-05-19T02:05:37;10.20;72.10
49777;DHT22;35673;51.482;7.436;2023-05-19T02:08:07;10.20;72.30
49777;DHT22;35673;51.482;7.436;2023-05-19T02:10:35;10.20;72.40
49777;DHT22;35673;51.482;7.436;2023-05-19T02:13:03;10.20;72.30
49777;DHT22;35673;51.482;7.436;2023-05-19T02:15:29;10.20;72.70
49777;DHT22;35673;51.482;7.436;2023-05-19T02:17:58;10.20;72.80
49777;DHT22;35673;51.482;7.436;2023-05-19T02:20:29;10.10;73.00
49777;DHT22;35673;51.482;7.436;2023-05-19T02:22:54;10.10;73.10
49777;DHT22;35673;51.482;7.436;2023-05-19T02:25:20;10.20;73.00
49777;DHT22;35673;51.482;7.436;2023-05-19T02:27:45;10.20;72.80
49777;DHT22;35673;51.482;7.436;2023-05-19T02:30:13;10.10;73.00
49777;DHT22;35673;51.482;7.436;2023-05-19T02:32:38;10.20;73.50
49777;DHT22;35673;51.482;7.436;2023-05-19T02:35:04;10.10;73.20
49777;DHT22;35673;51.482;7.436;2023-05-19T02:37:30;10.10;73.00
49777;DHT22;35673;51.482;7.436;2023-05-19T02:39:56;10.10;73.30
49777;DHT22;35673;51.482;7.436;2023-05-19T02:42:22;10.00;73.30
49777;DHT22;35673;51.482;7.436;2023-05-19T02:44:48;10.10;73.60
49777;DHT22;35673;51.482;7.436;2023-05-19T02:47:13;10.00;73.10
49777;DHT22;35673;51.482;7.436;2023-05-19T02:49:39;9.90;73.70
49777;DHT22;35673;51.482;7.436;2023-05-19T02:52:05;9.90;73.60
49777;DHT22;35673;51.482;7.436;2023-05-19T02:54:31;9.90;73.60
49777;DHT22;35673;51.482;7.436;2023-05-19T02:56:56;9.90;74.00
49777;DHT22;35673;51.482;7.436;2023-05-19T02:59:22;9.90;73.90
49777;DHT22;35673;51.482;7.436;2023-05-19T03:01:49;9.90;74.00
49777;DHT22;35673;51.482;7.436;2023-05-19T03:04:14;9.80;73.90
49777;DHT22;35673;51.482;7.436;2023-05-19T03:06:40;9.80;74.40
49777;DHT22;35673;51.482;7.436;2023-05-19T03:09:06;9.80;74.70
49777;DHT22;35673;51.482;7.436;2023-05-19T03:11:32;9.70;74.50
49777;DHT22;35673;51.482;7.436;2023-05-19T03:13:57;9.70;74.50
49777;DHT22;35673;51.482;7.436;2023-05-19T03:16:23;9.70;74.60
49777;DHT22;35673;51.482;7.436;2023-05-19T03:18:49;9.60;74.80
49777;DHT22;35673;51.482;7.436;2023-05-19T03:21:15;9.60;75.20
49777;DHT22;35673;51.482;7.436;2023-05-19T03:23:40;9.60;74.60
49777;DHT22;35673;51.482;7.436;2023-05-19T03:26:06;9.50;74.80
49777;DHT22;35673;51.482;7.436;2023-05-19T03:28:31;9.50;74.90
49777;DHT22;35673;51.482;7.436;2023-05-19T03:30:56;9.50;75.00
49777;DHT22;35673;51.482;7.436;2023-05-19T03:33:22;9.50;75.50
49777;DHT22;35673;51.482;7.436;2023-05-19T03:35:48;9.50;74.60
49777;DHT22;35673;51.482;7.436;2023-05-19T03:38:13;9.40;74.80
49777;DHT22;35673;51.482;7.436;2023-05-19T03:40:39;9.30;74.50
49777;DHT22;35673;51.482;7.436;2023-05-19T03:43:05;9.20;74.80
49777;DHT22;35673;51.482;7.436;2023-05-19T03:45:31;9.20;74.50
49777;DHT22;35673;51.482;7.436;2023-05-19T03:47:57;9.10;74.60
49777;DHT22;35673;51.482;7.436;2023-05-19T03:50:22;9.10;75.10
49777;DHT22;35673;51.482;7.436;2023-05-19T03:52:48;9.10;75.20
49777;DHT22;35673;51.482;7.436;2023-05-19T03:55:13;9.10;75.20
49777;DHT22;35673;51.482;7.436;2023-05-19T03:57:39;9.10;75.40
49777;DHT22;35673;51.482;7.436;2023-05-19T04:00:06;9.10;75.50
49777;DHT22;35673;51.482;7.436;2023-05-19T04:02:31;9.10;75.60
49777;DHT22;35673;51.482;7.436;2023-05-19T04:04:57;9.10;75.60
49777;DHT22;35673;51.482;7.436;2023-05-19T04:07:22;9.10;76.00
49777;DHT22;35673;51.482;7.436;2023-05-19T04:09:48;9.10;76.00
49777;DHT22;35673;51.482;7.436;2023-05-19T04:12:14;9.10;76.60
49777;DHT22;35673;51.482;7.436;2023-05-19T04:14:39;9.10;76.30
49777;DHT22;35673;51.482;7.436;2023-05-19T04:17:05;9.10;76.30
49777;DHT22;35673;51.482;7.436;2023-05-19T04:19:30;9.20;76.10
49777;DHT22;35673;51.482;7.436;2023-05-19T04:21:56;9.20;76.70
49777;DHT22;35673;51.482;7.436;2023-05-19T04:24:21;9.20;76.60
49777;DHT22;35673;51.482;7.436;2023-05-19T04:26:47;9.10;76.60
49777;DHT22;35673;51.482;7.436;2023-05-19T04:29:12;9.10;76.50
49777;DHT22;35673;51.482;7.436;2023-05-19T04:31:38;9.10;76.40
49777;DHT22;35673;51.482;7.436;2023-05-19T04:34:05;9.10;76.20
49777;DHT22;35673;51.482;7.436;2023-05-19T04:36:32;9.10;76.70
49777;DHT22;35673;51.482;7.436;2023-05-19T04:38:58;9.20;76.80
49777;DHT22;35673;51.482;7.436;2023-05-19T04:41:26;9.30;76.60
49777;DHT22;35673;51.482;7.436;2023-05-19T04:43:52;9.20;76.30
49777;DHT22;35673;51.482;7.436;2023-05-19T04:46:17;9.10;76.10
49777;DHT22;35673;51.482;7.436;2023-05-19T04:48:49;9.10;76.40
49777;DHT22;35673;51.482;7.436;2023-05-19T04:51:14;9.20;76.50
49777;DHT22;35673;51.482;7.436;2023-05-19T04:53:41;9.30;76.70
49777;DHT22;35673;51.482;7.436;2023-05-19T04:56:08;9.30;76.50
49777;DHT22;35673;51.482;7.436;2023-05-19T04:58:33;9.40;76.60
49777;DHT22;35673;51.482;7.436;2023-05-19T05:00:59;9.40;76.50
49777;DHT22;35673;51.482;7.436;2023-05-19T05:03:24;9.40;76.50
49777;DHT22;35673;51.482;7.436;2023-05-19T05:05:50;9.50;76.70
49777;DHT22;35673;51.482;7.436;2023-05-19T05:08:16;9.60;76.70
49777;DHT22;35673;51.482;7.436;2023-05-19T05:10:48;9.70;76.80
49777;DHT22;35673;51.482;7.436;2023-05-19T05:13:14;9.70;76.90
49777;DHT22;35673;51.482;7.436;2023-05-19T05:15:39;9.80;76.80
49777;DHT22;35673;51.482;7.436;2023-05-19T05:18:05;9.90;76.70
49777;DHT22;35673;51.482;7.436;2023-05-19T05:20:30;9.90;76.60
49777;DHT22;35673;51.482;7.436;2023-05-19T05:22:56;10.00;77.00
49777;DHT22;35673;51.482;7.436;2023-05-19T05:25:22;10.00;77.20
49777;DHT22;35673;51.482;7.436;2023-05-19T05:27:47;10.10;77.10
49777;DHT22;35673;51.482;7.436;2023-05-19T05:30:13;10.20;76.60
49777;DHT22;35673;51.482;7.436;2023-05-19T05:32:38;10.30;76.50
49777;DHT22;35673;51.482;7.436;2023-05-19T05:35:04;10.40;76.30
49777;DHT22;35673;51.482;7.436;2023-05-19T05:37:30;10.50;76.10
49777;DHT22;35673;51.482;7.436;2023-05-19T05:39:55;10.50;76.10
49777;DHT22;35673;51.482;7.436;2023-05-19T05:42:20;10.60;75.70
49777;DHT22;35673;51.482;7.436;2023-05-19T05:44:46;10.70;75.70
49777;DHT22;35673;51.482;7.436;2023-05-19T05:47:12;10.70;75.60
49777;DHT22;35673;51.482;7.436;2023-05-19T05:49:38;10.80;75.30
49777;DHT22;35673;51.482;7.436;2023-05-19T05:52:04;10.90;75.30
49777;DHT22;35673;51.482;7.436;2023-05-19T05:54:30;11.00;75.00
49777;DHT22;35673;51.482;7.436;2023-05-19T05:56:56;11.00;74.70
49777;DHT22;35673;51.482;7.436;2023-05-19T05:59:22;11.10;75.00
49777;DHT22;35673;51.482;7.436;2023-05-19T06:01:47;11.20;74.20
49777;DHT22;35673;51.482;7.436;2023-05-19T06:04:12;11.30;74.20
49777;DHT22;35673;51.482;7.436;2023-05-19T06:06:38;11.30;73.80
49777;DHT22;35673;51.482;7.436;2023-05-19T06:09:03;11.40;73.60
49777;DHT22;35673;51.482;7.436;2023-05-19T06:11:29;11.50;73.50
49777;DHT22;35673;51.482;7.436;2023-05-19T06:13:55;11.60;73.40
49777;DHT22;35673;51.482;7.436;2023-05-19T06:16:20;11.70;73.10
49777;DHT22;35673;51.482;7.436;2023-05-19T06:18:46;11.70;73.00
49777;DHT22;35673;51.482;7.436;2023-05-19T06:21:11;11.80;72.80
49777;DHT22;35673;51.482;7.436;2023-05-19T06:23:40;11.90;72.50
49777;DHT22;35673;51.482;7.436;2023-05-19T06:26:06;12.00;72.40
49777;DHT22;35673;51.482;7.436;2023-05-19T06:28:32;12.10;72.30
49777;DHT22;35673;51.482;7.436;2023-05-19T06:30:57;12.10;72.10
49777;DHT22;35673;51.482;7.436;2023-05-19T06:33:24;12.30;71.70
49777;DHT22;35673;51.482;7.436;2023-05-19T06:35:49;12.30;71.50
49777;DHT22;35673;51.482;7.436;2023-05-19T06:38:15;12.40;71.50
49777;DHT22;35673;51.482;7.436;2023-05-19T06:40:40;12.50;71.30
49777;DHT22;35673;51.482;7.436;2023-05-19T06:43:06;12.60;70.80
49777;DHT22;35673;51.482;7.436;2023-05-19T06:45:32;12.60;70.90
49777;DHT22;35673;51.482;7.436;2023-05-19T06:47:57;12.70;70.60
49777;DHT22;35673;51.482;7.436;2023-05-19T06:50:23;12.70;70.50
49777;DHT22;35673;51.482;7.436;2023-05-19T06:52:49;12.80;70.30
49777;DHT22;35673;51.482;7.436;2023-05-19T06:55:14;12.80;70.30
49777;DHT22;35673;51.482;7.436;2023-05-19T06:57:40;12.90;70.10
49777;DHT22;35673;51.482;7.436;2023-05-19T07:00:05;13.00;70.80
49777;DHT22;35673;51.482;7.436;2023-05-19T07:02:34;13.00;70.00
49777;DHT22;35673;51.482;7.436;2023-05-19T07:05:00;13.10;69.80
49777;DHT22;35673;51.482;7.436;2023-05-19T07:07:25;13.20;69.80
49777;DHT22;35673;51.482;7.436;2023-05-19T07:09:50;13.20;69.30
49777;DHT22;35673;51.482;7.436;2023-05-19T07:12:16;13.30;68.80
49777;DHT22;35673;51.482;7.436;2023-05-19T07:14:41;13.30;68.60
49777;DHT22;35673;51.482;7.436;2023-05-19T07:17:07;13.40;68.40
49777;DHT22;35673;51.482;7.436;2023-05-19T07:19:32;13.50;68.30
49777;DHT22;35673;51.482;7.436;2023-05-19T07:21:58;13.50;68.40
49777;DHT22;35673;51.482;7.436;2023-05-19T07:24:23;13.70;67.80
49777;DHT22;35673;51.482;7.436;2023-05-19T07:26:49;13.80;68.30
49777;DHT22;35673;51.482;7.436;2023-05-19T07:29:14;14.00;67.80
49777;DHT22;35673;51.482;7.436;2023-05-19T07:31:40;14.20;67.60
49777;DHT22;35673;51.482;7.436;2023-05-19T07:34:05;14.40;67.60
49777;DHT22;35673;51.482;7.436;2023-05-19T07:36:31;14.50;66.90
49777;DHT22;35673;51.482;7.436;2023-05-19T07:38:56;14.70;66.90
49777;DHT22;35673;51.482;7.436;2023-05-19T07:41:22;14.70;65.90
49777;DHT22;35673;51.482;7.436;2023-05-19T07:43:48;14.90;65.80
49777;DHT22;35673;51.482;7.436;2023-05-19T07:46:13;14.90;65.70
49777;DHT22;35673;51.482;7.436;2023-05-19T07:48:39;15.10;65.70
49777;DHT22;35673;51.482;7.436;2023-05-19T07:51:04;15.20;64.80
49777;DHT22;35673;51.482;7.436;2023-05-19T07:53:30;15.40;64.60
49777;DHT22;35673;51.482;7.436;2023-05-19T07:55:55;15.50;63.60
49777;DHT22;35673;51.482;7.436;2023-05-19T07:58:21;15.60;63.10
49777;DHT22;35673;51.482;7.436;2023-05-19T08:00:47;15.80;62.80
49777;DHT22;35673;51.482;7.436;2023-05-19T08:03:12;15.90;62.70
49777;DHT22;35673;51.482;7.436;2023-05-19T08:05:37;16.10;62.30
49777;DHT22;35673;51.482;7.436;2023-05-19T08:08:03;16.20;61.60
49777;DHT22;35673;51.482;7.436;2023-05-19T08:10:28;16.40;61.30
49777;DHT22;35673;51.482;7.436;2023-05-19T08:12:54;16.50;61.60
49777;DHT22;35673;51.482;7.436;2023-05-19T08:15:19;16.70;61.00
49777;DHT22;35673;51.482;7.436;2023-05-19T08:17:45;16.70;61.10
49777;DHT22;35673;51.482;7.436;2023-05-19T08:20:10;17.00;60.60
49777;DHT22;35673;51.482;7.436;2023-05-19T08:22:36;17.20;60.30
49777;DHT22;35673;51.482;7.436;2023-05-19T08:25:02;17.40;60.50
49777;DHT22;35673;51.482;7.436;2023-05-19T08:27:28;17.50;59.40
49777;DHT22;35673;51.482;7.436;2023-05-19T08:29:54;17.50;59.00
49777;DHT22;35673;51.482;7.436;2023-05-19T08:32:20;17.70;59.00
49777;DHT22;35673;51.482;7.436;2023-05-19T08:34:45;17.80;58.70
49777;DHT22;35673;51.482;7.436;2023-05-19T08:37:11;17.80;57.90
49777;DHT22;35673;51.482;7.436;2023-05-19T08:39:37;18.00;57.10
49777;DHT22;35673;51.482;7.436;2023-05-19T08:42:02;18.00;56.90
49777;DHT22;35673;51.482;7.436;2023-05-19T08:44:28;18.10;56.50
49777;DHT22;35673;51.482;7.436;2023-05-19T08:46:55;18.20;56.80
49777;DHT22;35673;51.482;7.436;2023-05-19T08:49:22;18.30;56.20
49777;DHT22;35673;51.482;7.436;2023-05-19T08:51:59;18.40;56.20
49777;DHT22;35673;51.482;7.436;2023-05-19T08:54:28;18.50;55.60
49777;DHT22;35673;51.482;7.436;2023-05-19T08:56:57;18.50;54.90
49777;DHT22;35673;51.482;7.436;2023-05-19T08:59:23;18.60;54.30
49777;DHT22;35673;51.482;7.436;2023-05-19T09:01:49;18.70;53.90
49777;DHT22;35673;51.482;7.436;2023-05-19T09:04:15;18.80;53.70
49777;DHT22;35673;51.482;7.436;2023-05-19T09:06:41;19.00;53.50
49777;DHT22;35673;51.482;7.436;2023-05-19T09:09:09;19.10;53.60
49777;DHT22;35673;51.482;7.436;2023-05-19T09:11:35;19.10;53.40
49777;DHT22;35673;51.482;7.436;2023-05-19T09:14:02;19.00;53.10
49777;DHT22;35673;51.482;7.436;2023-05-19T09:16:28;19.10;53.20
49777;DHT22;35673;51.482;7.436;2023-05-19T09:18:53;19.10;52.70
49777;DHT22;35673;51.482;7.436;2023-05-19T09:21:25;19.00;52.60
49777;DHT22;35673;51.482;7.436;2023-05-19T09:23:52;18.90;53.10
49777;DHT22;35673;51.482;7.436;2023-05-19T09:26:20;18.80;53.20
49777;DHT22;35673;51.482;7.436;2023-05-19T09:28:47;18.70;52.80
49777;DHT22;35673;51.482;7.436;2023-05-19T09:31:13;18.60;52.80
49777;DHT22;35673;51.482;7.436;2023-05-19T09:33:39;18.50;53.40
49777;DHT22;35673;51.482;7.436;2023-05-19T09:36:05;18.50;53.20
49777;DHT22;35673;51.482;7.436;2023-05-19T09:38:32;18.50;53.10
49777;DHT22;35673;51.482;7.436;2023-05-19T09:40:59;18.60;53.00
49777;DHT22;35673;51.482;7.436;2023-05-19T09:43:28;18.60;52.80
49777;DHT22;35673;51.482;7.436;2023-05-19T09:46:03;18.60;52.90
49777;DHT22;35673;51.482;7.436;2023-05-19T09:48:30;18.50;52.20
49777;DHT22;35673;51.482;7.436;2023-05-19T09:50:55;18.50;52.30
49777;DHT22;35673;51.482;7.436;2023-05-19T09:53:22;18.50;52.40
49777;DHT22;35673;51.482;7.436;2023-05-19T09:55:48;18.60;52.10
49777;DHT22;35673;51.482;7.436;2023-05-19T09:58:15;18.60;52.80
49777;DHT22;35673;51.482;7.436;2023-05-19T10:00:41;18.50;53.00
49777;DHT22;35673;51.482;7.436;2023-05-19T10:03:07;18.40;52.70
49777;DHT22;35673;51.482;7.436;2023-05-19T10:05:33;18.40;52.90
49777;DHT22;35673;51.482;7.436;2023-05-19T10:07:59;18.40;53.20
49777;DHT22;35673;51.482;7.436;2023-05-19T10:10:24;18.40;52.90
49777;DHT22;35673;51.482;7.436;2023-05-19T10:12:51;18.40;52.40
49777;DHT22;35673;51.482;7.436;2023-05-19T10:15:18;18.50;53.20
49777;DHT22;35673;51.482;7.436;2023-05-19T10:17:44;18.50;52.80
49777;DHT22;35673;51.482;7.436;2023-05-19T10:20:11;18.60;52.60
49777;DHT22;35673;51.482;7.436;2023-05-19T10:22:37;18.60;52.70
49777;DHT22;35673;51.482;7.436;2023-05-19T10:25:03;18.60;53.50
49777;DHT22;35673;51.482;7.436;2023-05-19T10:27:30;18.60;53.30
49777;DHT22;35673;51.482;7.436;2023-05-19T10:29:57;18.60;53.60
49777;DHT22;35673;51.482;7.436;2023-05-19T10:32:26;18.60;52.90
49777;DHT22;35673;51.482;7.436;2023-05-19T10:37:33;18.70;52.70
49777;DHT22;35673;51.482;7.436;2023-05-19T10:40:04;18.70;52.70
49777;DHT22;35673;51.482;7.436;2023-05-19T10:42:35;18.70;52.60
49777;DHT22;35673;51.482;7.436;2023-05-19T10:47:34;18.80;53.10
49777;DHT22;35673;51.482;7.436;2023-05-19T10:49:59;18.80;53.20
49777;DHT22;35673;51.482;7.436;2023-05-19T10:52:25;18.90;52.50
49777;DHT22;35673;51.482;7.436;2023-05-19T10:54:51;18.90;52.70
49777;DHT22;35673;51.482;7.436;2023-05-19T10:57:19;19.00;53.40
49777;DHT22;35673;51.482;7.436;2023-05-19T10:59:44;19.00;52.30
49777;DHT22;35673;51.482;7.436;2023-05-19T11:02:10;19.10;52.40
49777;DHT22;35673;51.482;7.436;2023-05-19T11:04:56;19.20;52.80
49777;DHT22;35673;51.482;7.436;2023-05-19T11:07:31;19.20;52.70
49777;DHT22;35673;51.482;7.436;2023-05-19T11:09:57;19.30;52.70
49777;DHT22;35673;51.482;7.436;2023-05-19T11:12:22;19.40;52.40
49777;DHT22;35673;51.482;7.436;2023-05-19T11:14:51;19.40;52.70
49777;DHT22;35673;51.482;7.436;2023-05-19T11:17:17;19.30;53.20
49777;DHT22;35673;51.482;7.436;2023-05-19T11:19:55;19.20;53.10
49777;DHT22;35673;51.482;7.436;2023-05-19T11:22:22;19.40;53.80
49777;DHT22;35673;51.482;7.436;2023-05-19T11:24:48;19.60;53.00
49777;DHT22;35673;51.482;7.436;2023-05-19T11:27:31;19.80;51.90
49777;DHT22;35673;51.482;7.436;2023-05-19T11:29:58;19.90;52.20
49777;DHT22;35673;51.482;7.436;2023-05-19T11:32:33;19.80;51.80
49777;DHT22;35673;51.482;7.436;2023-05-19T11:34:59;19.80;52.10
49777;DHT22;35673;51.482;7.436;2023-05-19T11:37:25;19.70;52.30
49777;DHT22;35673;51.482;7.436;2023-05-19T11:39:50;19.70;52.50
49777;DHT22;35673;51.482;7.436;2023-05-19T11:42:16;19.80;52.50
49777;DHT22;35673;51.482;7.436;2023-05-19T11:44:43;19.80;52.30
49777;DHT22;35673;51.482;7.436;2023-05-19T11:47:11;19.80;52.10
49777;DHT22;35673;51.482;7.436;2023-05-19T11:49:36;19.80;52.60
49777;DHT22;35673;51.482;7.436;2023-05-19T11:52:03;19.70;52.00
49777;DHT22;35673;51.482;7.436;2023-05-19T11:54:29;19.70;52.20
49777;DHT22;35673;51.482;7.436;2023-05-19T11:56:56;19.80;51.70
49777;DHT22;35673;51.482;7.436;2023-05-19T11:59:30;19.90;52.00
49777;DHT22;35673;51.482;7.436;2023-05-19T12:01:57;19.80;51.80
49777;DHT22;35673;51.482;7.436;2023-05-19T12:04:22;19.90;52.00
49777;DHT22;35673;51.482;7.436;2023-05-19T12:06:48;20.10;52.10
49777;DHT22;35673;51.482;7.436;2023-05-19T12:09:13;20.20;52.00
49777;DHT22;35673;51.482;7.436;2023-05-19T12:11:39;20.30;51.90
49777;DHT22;35673;51.482;7.436;2023-05-19T12:14:04;20.30;50.80
49777;DHT22;35673;51.482;7.436;2023-05-19T12:16:33;20.50;50.90
49777;DHT22;35673;51.482;7.436;2023-05-19T12:18:59;21.00;51.60
49777;DHT22;35673;51.482;7.436;2023-05-19T12:21:25;21.80;50.00
49777;DHT22;35673;51.482;7.436;2023-05-19T12:23:50;21.70;48.50
49777;DHT22;35673;51.482;7.436;2023-05-19T12:26:16;21.50;48.90
49777;DHT22;35673;51.482;7.436;2023-05-19T12:28:46;21.30;48.60
49777;DHT22;35673;51.482;7.436;2023-05-19T12:31:12;21.10;50.10
49777;DHT22;35673;51.482;7.436;2023-05-19T12:33:37;21.00;49.70
49777;DHT22;35673;51.482;7.436;2023-05-19T12:36:03;21.00;49.80
49777;DHT22;35673;51.482;7.436;2023-05-19T12:38:29;20.90;49.20
49777;DHT22;35673;51.482;7.436;2023-05-19T12:40:57;20.90;50.00
49777;DHT22;35673;51.482;7.436;2023-05-19T12:43:22;21.20;49.30
49777;DHT22;35673;51.482;7.436;2023-05-19T12:45:48;21.20;49.00
49777;DHT22;35673;51.482;7.436;2023-05-19T12:48:13;21.20;48.60
49777;DHT22;35673;51.482;7.436;2023-05-19T12:50:42;21.40;48.90
49777;DHT22;35673;51.482;7.436;2023-05-19T12:53:12;21.60;49.00
49777;DHT22;35673;51.482;7.436;2023-05-19T12:55:41;22.00;48.70
49777;DHT22;35673;51.482;7.436;2023-05-19T12:58:07;22.80;47.50
49777;DHT22;35673;51.482;7.436;2023-05-19T13:00:33;24.00;47.20
49777;DHT22;35673;51.482;7.436;2023-05-19T13:03:05;26.40;45.70
49777;DHT22;35673;51.482;7.436;2023-05-19T13:05:31;28.80;42.70
49777;DHT22;35673;51.482;7.436;2023-05-19T13:08:00;30.40;40.90
49777;DHT22;35673;51.482;7.436;2023-05-19T13:10:29;31.60;39.80
49777;DHT22;35673;51.482;7.436;2023-05-19T13:12:55;32.60;38.90
49777;DHT22;35673;51.482;7.436;2023-05-19T13:15:22;33.20;38.50
49777;DHT22;35673;51.482;7.436;2023-05-19T13:17:51;33.70;37.40
49777;DHT22;35673;51.482;7.436;2023-05-19T13:20:17;34.30;37.80
49777;DHT22;35673;51.482;7.436;2023-05-19T13:22:42;34.80;37.40
49777;DHT22;35673;51.482;7.436;2023-05-19T13:25:08;35.30;36.20
49777;DHT22;35673;51.482;7.436;2023-05-19T13:27:33;35.30;37.00
49777;DHT22;35673;51.482;7.436;2023-05-19T13:29:59;35.20;36.80
49777;DHT22;35673;51.482;7.436;2023-05-19T13:32:25;35.70;37.00
49777;DHT22;35673;51.482;7.436;2023-05-19T13:34:50;36.10;36.60
49777;DHT22;35673;51.482;7.436;2023-05-19T13:37:16;36.40;36.30
49777;DHT22;35673;51.482;7.436;2023-05-19T13:39:41;36.70;37.10
49777;DHT22;35673;51.482;7.436;2023-05-19T13:42:07;37.20;36.40
49777;DHT22;35673;51.482;7.436;2023-05-19T13:44:32;37.40;37.00
49777;DHT22;35673;51.482;7.436;2023-05-19T13:46:58;37.40;35.70
49777;DHT22;35673;51.482;7.436;2023-05-19T13:49:23;37.10;35.30
49777;DHT22;35673;51.482;7.436;2023-05-19T13:51:49;37.50;37.70
49777;DHT22;35673;51.482;7.436;2023-05-19T13:54:14;38.00;35.10
49777;DHT22;35673;51.482;7.436;2023-05-19T13:56:40;38.50;35.00
49777;DHT22;35673;51.482;7.436;2023-05-19T13:59:07;38.70;34.00
49777;DHT22;35673;51.482;7.436;2023-05-19T14:01:32;38.90;34.70
49777;DHT22;35673;51.482;7.436;2023-05-19T14:03:58;38.50;35.70
49777;DHT22;35673;51.482;7.436;2023-05-19T14:06:23;38.40;35.50
49777;DHT22;35673;51.482;7.436;2023-05-19T14:08:49;38.50;36.60
49777;DHT22;35673;51.482;7.436;2023-05-19T14:11:17;37.10;35.80
49777;DHT22;35673;51.482;7.436;2023-05-19T14:13:47;37.60;35.40
49777;DHT22;35673;51.482;7.436;2023-05-19T14:16:12;38.40;35.50
49777;DHT22;35673;51.482;7.436;2023-05-19T14:18:38;38.60;35.90
49777;DHT22;35673;51.482;7.436;2023-05-19T14:21:03;38.80;35.60
49777;DHT22;35673;51.482;7.436;2023-05-19T14:23:29;39.30;35.40
49777;DHT22;35673;51.482;7.436;2023-05-19T14:25:54;39.80;35.20
49777;DHT22;35673;51.482;7.436;2023-05-19T14:28:20;39.80;37.10
49777;DHT22;35673;51.482;7.436;2023-05-19T14:30:46;39.00;34.10
49777;DHT22;35673;51.482;7.436;2023-05-19T14:33:11;39.80;33.70
49777;DHT22;35673;51.482;7.436;2023-05-19T14:35:37;40.40;35.30
49777;DHT22;35673;51.482;7.436;2023-05-19T14:40:28;41.00;34.20
49777;DHT22;35673;51.482;7.436;2023-05-19T14:42:54;41.50;33.80
49777;DHT22;35673;51.482;7.436;2023-05-19T14:45:20;41.60;34.60
49777;DHT22;35673;51.482;7.436;2023-05-19T14:47:45;41.40;34.30
49777;DHT22;35673;51.482;7.436;2023-05-19T14:50:11;41.70;34.50
49777;DHT22;35673;51.482;7.436;2023-05-19T14:52:36;42.20;34.10
49777;DHT22;35673;51.482;7.436;2023-05-19T14:55:02;42.00;34.30
49777;DHT22;35673;51.482;7.436;2023-05-19T14:57:27;42.10;34.40
49777;DHT22;35673;51.482;7.436;2023-05-19T14:59:53;42.30;33.40
49777;DHT22;35673;51.482;7.436;2023-05-19T15:02:18;42.70;34.30
49777;DHT22;35673;51.482;7.436;2023-05-19T15:04:44;43.00;33.60
49777;DHT22;35673;51.482;7.436;2023-05-19T15:07:09;43.30;33.00
49777;DHT22;35673;51.482;7.436;2023-05-19T15:09:35;43.20;33.40
49777;DHT22;35673;51.482;7.436;2023-05-19T15:12:00;43.70;33.00
49777;DHT22;35673;51.482;7.436;2023-05-19T15:14:26;43.50;32.70
49777;DHT22;35673;51.482;7.436;2023-05-19T15:16:51;43.20;33.30
49777;DHT22;35673;51.482;7.436;2023-05-19T15:19:17;43.00;34.60
49777;DHT22;35673;51.482;7.436;2023-05-19T15:21:42;42.90;33.40
49777;DHT22;35673;51.482;7.436;2023-05-19T15:24:10;43.50;34.00
49777;DHT22;35673;51.482;7.436;2023-05-19T15:26:35;44.00;32.50
49777;DHT22;35673;51.482;7.436;2023-05-19T15:31:27;44.50;31.30
49777;DHT22;35673;51.482;7.436;2023-05-19T15:33:52;44.70;32.60
49777;DHT22;35673;51.482;7.436;2023-05-19T15:36:18;45.50;33.40
49777;DHT22;35673;51.482;7.436;2023-05-19T15:38:43;45.80;31.80
49777;DHT22;35673;51.482;7.436;2023-05-19T15:41:09;45.40;32.30
49777;DHT22;35673;51.482;7.436;2023-05-19T15:43:34;43.50;32.00